sensor_id;sensor_type;location;lat;lon;timestamp;pressure;altitude;pressure_sealevel;temperature;humidity
23473;BME280;11909;52.516;13.564;2022-08-19T00:01:42;100348.66;;;21.96;90.38
23473;BME280;11909;52.516;13.564;2022-08-19T00:04:11;100340.09;;;21.88;92.29
23473;BME280;11909;52.516;13.564;2022-08-19T00:06:40;100344.81;;;21.84;92.49
23473;BME280;11909;52.516;13.564;2022-08-19T00:09:10;100340.03;;;21.85;92.59
23473;BME280;11909;52.516;13.564;2022-08-19T00:11:38;100349.16;;;21.82;92.50
23473;BME280;11909;52.516;13.564;2022-08-19T00:14:07;100367.09;;;21.81;92.42
23473;BME280;11909;52.516;13.564;2022-08-19T00:16:35;100375.31;;;21.73;94.22
23473;BME280;11909;52.516;13.564;2022-08-19T00:19:01;100385.03;;;21.63;95.15
23473;BME280;11909;52.516;13.564;2022-08-19T00:21:28;100378.13;;;21.57;96.45
23473;BME280;11909;52.516;13.564;2022-08-19T00:23:55;100373.41;;;21.61;96.03
23473;BME280;11909;52.516;13.564;2022-08-19T00:26:23;100368.22;;;21.60;96.19
23473;BME280;11909;52.516;13.564;2022-08-19T00:28:51;100376.50;;;21.56;96.36
23473;BME280;11909;52.516;13.564;2022-08-19T00:31:17;100360.50;;;21.53;96.35
23473;BME280;11909;52.516;13.564;2022-08-19T00:33:44;100362.25;;;21.61;96.77
23473;BME280;11909;52.516;13.564;2022-08-19T00:36:11;100357.50;;;21.62;96.57
23473;BME280;11909;52.516;13.564;2022-08-19T00:38:39;100345.63;;;21.65;96.67
23473;BME280;11909;52.516;13.564;2022-08-19T00:41:08;100338.47;;;21.68;96.79
23473;BME280;11909;52.516;13.564;2022-08-19T00:43:35;100323.59;;;21.63;96.32
23473;BME280;11909;52.516;13.564;2022-08-19T00:46:04;100326.16;;;21.69;96.24
23473;BME280;11909;52.516;13.564;2022-08-19T00:48:31;100325.69;;;21.67;95.55
23473;BME280;11909;52.516;13.564;2022-08-19T00:50:59;100340.34;;;21.63;95.76
23473;BME280;11909;52.516;13.564;2022-08-19T00:53:27;100345.25;;;21.67;96.29
23473;BME280;11909;52.516;13.564;2022-08-19T00:55:56;100347.84;;;21.59;95.43
23473;BME280;11909;52.516;13.564;2022-08-19T00:58:26;100354.53;;;21.55;96.09
23473;BME280;11909;52.516;13.564;2022-08-19T01:00:54;100349.22;;;21.49;96.63
23473;BME280;11909;52.516;13.564;2022-08-19T01:03:22;100344.81;;;21.48;96.40
23473;BME280;11909;52.516;13.564;2022-08-19T01:05:50;100341.94;;;21.45;97.72
23473;BME280;11909;52.516;13.564;2022-08-19T01:08:19;100343.13;;;21.44;97.84
23473;BME280;11909;52.516;13.564;2022-08-19T01:10:48;100349.44;;;21.41;98.28
23473;BME280;11909;52.516;13.564;2022-08-19T01:13:17;100361.78;;;21.40;99.08
23473;BME280;11909;52.516;13.564;2022-08-19T01:15:47;100359.72;;;21.37;99.64
23473;BME280;11909;52.516;13.564;2022-08-19T01:18:16;100356.69;;;21.26;100.00
23473;BME280;11909;52.516;13.564;2022-08-19T01:20:45;100361.28;;;21.18;100.00
23473;BME280;11909;52.516;13.564;2022-08-19T01:23:14;100365.63;;;21.15;100.00
23473;BME280;11909;52.516;13.564;2022-08-19T01:25:44;100374.00;;;21.15;100.00
23473;BME280;11909;52.516;13.564;2022-08-19T01:28:16;100382.72;;;21.14;100.00
23473;BME280;11909;52.516;13.564;2022-08-19T01:30:44;100373.16;;;21.15;100.00
23473;BME280;11909;52.516;13.564;2022-08-19T01:33:11;100375.91;;;21.11;100.00
23473;BME280;11909;52.516;13.564;2022-08-19T01:35:38;100385.88;;;21.12;100.00
23473;BME280;11909;52.516;13.564;2022-08-19T01:38:07;100377.97;;;21.14;100.00
23473;BME280;11909;52.516;13.564;2022-08-19T01:40:38;100353.56;;;21.11;100.00
23473;BME280;11909;52.516;13.564;2022-08-19T01:43:05;100348.06;;;21.15;100.00
23473;BME280;11909;52.516;13.564;2022-08-19T01:45:33;100356.97;;;21.20;100.00
23473;BME280;11909;52.516;13.564;2022-08-19T01:48:00;100345.06;;;21.24;100.00
23473;BME280;11909;52.516;13.564;2022-08-19T01:50:27;100325.53;;;21.24;100.00
23473;BME280;11909;52.516;13.564;2022-08-19T01:52:53;100310.94;;;21.30;99.53
23473;BME280;11909;52.516;13.564;2022-08-19T01:55:21;100289.94;;;21.37;98.49
23473;BME280;11909;52.516;13.564;2022-08-19T01:57:52;100279.97;;;21.35;96.44
23473;BME280;11909;52.516;13.564;2022-08-19T02:00:22;100275.03;;;21.29;96.54
23473;BME280;11909;52.516;13.564;2022-08-19T02:02:49;100262.63;;;21.26;97.01
23473;BME280;11909;52.516;13.564;2022-08-19T02:05:16;100245.59;;;21.31;96.89
23473;BME280;11909;52.516;13.564;2022-08-19T02:07:43;100231.72;;;21.35;96.01
23473;BME280;11909;52.516;13.564;2022-08-19T02:10:14;100238.97;;;21.40;95.54
23473;BME280;11909;52.516;13.564;2022-08-19T02:12:41;100248.09;;;21.37;94.56
23473;BME280;11909;52.516;13.564;2022-08-19T02:15:09;100254.84;;;21.35;95.14
23473;BME280;11909;52.516;13.564;2022-08-19T02:17:36;100265.22;;;21.35;94.58
23473;BME280;11909;52.516;13.564;2022-08-19T02:20:04;100265.56;;;21.33;94.40
23473;BME280;11909;52.516;13.564;2022-08-19T02:25:15;100264.69;;;21.29;94.55
23473;BME280;11909;52.516;13.564;2022-08-19T02:27:42;100270.56;;;21.24;95.55
23473;BME280;11909;52.516;13.564;2022-08-19T02:30:13;100274.88;;;21.22;95.69
23473;BME280;11909;52.516;13.564;2022-08-19T02:32:42;100264.31;;;21.11;96.46
23473;BME280;11909;52.516;13.564;2022-08-19T02:35:09;100258.25;;;21.09;97.21
23473;BME280;11909;52.516;13.564;2022-08-19T02:37:36;100264.00;;;21.16;96.51
23473;BME280;11909;52.516;13.564;2022-08-19T02:40:20;100259.84;;;21.26;95.99
23473;BME280;11909;52.516;13.564;2022-08-19T02:42:46;100263.13;;;21.32;95.24
23473;BME280;11909;52.516;13.564;2022-08-19T02:45:14;100273.19;;;21.37;94.77
23473;BME280;11909;52.516;13.564;2022-08-19T02:47:41;100273.84;;;21.30;95.05
23473;BME280;11909;52.516;13.564;2022-08-19T02:50:08;100282.31;;;21.33;95.12
23473;BME280;11909;52.516;13.564;2022-08-19T02:52:35;100275.56;;;21.34;94.87
23473;BME280;11909;52.516;13.564;2022-08-19T02:55:03;100274.47;;;21.39;94.58
23473;BME280;11909;52.516;13.564;2022-08-19T02:57:30;100257.34;;;21.41;94.24
23473;BME280;11909;52.516;13.564;2022-08-19T02:59:57;100251.41;;;21.42;93.79
23473;BME280;11909;52.516;13.564;2022-08-19T03:02:25;100264.09;;;21.40;93.72
23473;BME280;11909;52.516;13.564;2022-08-19T03:04:52;100267.25;;;21.38;93.71
23473;BME280;11909;52.516;13.564;2022-08-19T03:07:19;100268.13;;;21.42;93.20
23473;BME280;11909;52.516;13.564;2022-08-19T03:09:45;100271.72;;;21.43;93.08
23473;BME280;11909;52.516;13.564;2022-08-19T03:12:11;100268.94;;;21.43;92.83
23473;BME280;11909;52.516;13.564;2022-08-19T03:14:38;100272.91;;;21.42;92.77
23473;BME280;11909;52.516;13.564;2022-08-19T03:17:05;100270.84;;;21.39;92.94
23473;BME280;11909;52.516;13.564;2022-08-19T03:19:33;100264.09;;;21.40;92.41
23473;BME280;11909;52.516;13.564;2022-08-19T03:21:59;100252.13;;;21.39;92.43
23473;BME280;11909;52.516;13.564;2022-08-19T03:24:26;100243.38;;;21.41;92.43
23473;BME280;11909;52.516;13.564;2022-08-19T03:26:53;100236.63;;;21.42;92.35
23473;BME280;11909;52.516;13.564;2022-08-19T03:29:23;100237.00;;;21.40;92.29
23473;BME280;11909;52.516;13.564;2022-08-19T03:31:50;100229.38;;;21.37;92.15
23473;BME280;11909;52.516;13.564;2022-08-19T03:34:19;100236.13;;;21.36;92.42
23473;BME280;11909;52.516;13.564;2022-08-19T03:36:48;100240.53;;;21.37;92.55
23473;BME280;11909;52.516;13.564;2022-08-19T03:39:15;100238.47;;;21.34;92.25
23473;BME280;11909;52.516;13.564;2022-08-19T03:41:43;100237.66;;;21.33;92.62
23473;BME280;11909;52.516;13.564;2022-08-19T03:44:10;100248.38;;;21.31;92.38
23473;BME280;11909;52.516;13.564;2022-08-19T03:46:37;100251.91;;;21.28;92.46
23473;BME280;11909;52.516;13.564;2022-08-19T03:49:04;100260.72;;;21.30;92.53
23473;BME280;11909;52.516;13.564;2022-08-19T03:51:35;100264.75;;;21.33;92.67
23473;BME280;11909;52.516;13.564;2022-08-19T03:54:06;100260.81;;;21.34;92.38
23473;BME280;11909;52.516;13.564;2022-08-19T03:56:34;100256.00;;;21.34;92.12
23473;BME280;11909;52.516;13.564;2022-08-19T03:59:02;100250.44;;;21.34;92.39
23473;BME280;11909;52.516;13.564;2022-08-19T04:01:29;100244.41;;;21.32;92.31
23473;BME280;11909;52.516;13.564;2022-08-19T04:03:57;100247.78;;;21.22;93.04
23473;BME280;11909;52.516;13.564;2022-08-19T04:06:25;100253.38;;;21.22;93.15
23473;BME280;11909;52.516;13.564;2022-08-19T04:08:53;100261.75;;;21.22;92.95
23473;BME280;11909;52.516;13.564;2022-08-19T04:11:24;100266.81;;;21.16;93.08
23473;BME280;11909;52.516;13.564;2022-08-19T04:13:52;100265.97;;;21.16;93.07
23473;BME280;11909;52.516;13.564;2022-08-19T04:16:20;100264.44;;;21.18;93.02
23473;BME280;11909;52.516;13.564;2022-08-19T04:18:47;100268.31;;;21.14;93.47
23473;BME280;11909;52.516;13.564;2022-08-19T04:21:16;100258.25;;;21.09;93.72
23473;BME280;11909;52.516;13.564;2022-08-19T04:23:44;100250.25;;;21.08;93.73
23473;BME280;11909;52.516;13.564;2022-08-19T04:26:13;100245.03;;;21.06;94.25
23473;BME280;11909;52.516;13.564;2022-08-19T04:28:42;100271.94;;;21.14;94.09
23473;BME280;11909;52.516;13.564;2022-08-19T04:31:12;100274.78;;;21.18;93.28
23473;BME280;11909;52.516;13.564;2022-08-19T04:33:39;100276.13;;;21.24;92.49
23473;BME280;11909;52.516;13.564;2022-08-19T04:36:06;100270.19;;;21.26;92.61
23473;BME280;11909;52.516;13.564;2022-08-19T04:38:32;100263.81;;;21.25;92.20
23473;BME280;11909;52.516;13.564;2022-08-19T04:40:59;100260.56;;;21.23;92.57
23473;BME280;11909;52.516;13.564;2022-08-19T04:43:45;100256.59;;;21.24;92.26
23473;BME280;11909;52.516;13.564;2022-08-19T04:46:13;100267.69;;;21.20;92.59
23473;BME280;11909;52.516;13.564;2022-08-19T04:48:40;100268.22;;;21.26;92.25
23473;BME280;11909;52.516;13.564;2022-08-19T04:51:09;100265.84;;;21.28;91.87
23473;BME280;11909;52.516;13.564;2022-08-19T04:53:37;100255.78;;;21.24;92.97
23473;BME280;11909;52.516;13.564;2022-08-19T04:56:06;100256.66;;;21.28;92.45
23473;BME280;11909;52.516;13.564;2022-08-19T04:58:33;100258.72;;;21.31;91.92
23473;BME280;11909;52.516;13.564;2022-08-19T05:01:01;100256.38;;;21.33;91.61
23473;BME280;11909;52.516;13.564;2022-08-19T05:03:28;100255.94;;;21.31;91.35
23473;BME280;11909;52.516;13.564;2022-08-19T05:05:58;100265.22;;;21.35;91.28
23473;BME280;11909;52.516;13.564;2022-08-19T05:08:25;100261.94;;;21.33;91.15
23473;BME280;11909;52.516;13.564;2022-08-19T05:10:51;100256.75;;;21.31;91.23
23473;BME280;11909;52.516;13.564;2022-08-19T05:13:19;100242.78;;;21.31;91.86
23473;BME280;11909;52.516;13.564;2022-08-19T05:15:53;100239.56;;;21.29;92.06
23473;BME280;11909;52.516;13.564;2022-08-19T05:18:21;100235.59;;;21.30;92.16
23473;BME280;11909;52.516;13.564;2022-08-19T05:21:07;100238.09;;;21.35;91.33
23473;BME280;11909;52.516;13.564;2022-08-19T05:23:51;100231.41;;;21.40;90.79
23473;BME280;11909;52.516;13.564;2022-08-19T05:26:17;100232.66;;;21.43;90.17
23473;BME280;11909;52.516;13.564;2022-08-19T05:28:44;100230.28;;;21.45;89.95
23473;BME280;11909;52.516;13.564;2022-08-19T05:31:10;100231.13;;;21.45;89.48
23473;BME280;11909;52.516;13.564;2022-08-19T05:33:38;100232.38;;;21.48;89.36
23473;BME280;11909;52.516;13.564;2022-08-19T05:36:06;100228.84;;;21.51;89.28
23473;BME280;11909;52.516;13.564;2022-08-19T05:38:33;100231.25;;;21.53;89.28
23473;BME280;11909;52.516;13.564;2022-08-19T05:40:59;100227.66;;;21.52;89.41
23473;BME280;11909;52.516;13.564;2022-08-19T05:43:26;100242.50;;;21.56;89.29
23473;BME280;11909;52.516;13.564;2022-08-19T05:45:52;100234.56;;;21.58;89.48
23473;BME280;11909;52.516;13.564;2022-08-19T05:48:19;100244.13;;;21.57;89.51
23473;BME280;11909;52.516;13.564;2022-08-19T05:50:47;100244.19;;;21.61;89.85
23473;BME280;11909;52.516;13.564;2022-08-19T05:53:15;100248.97;;;21.60;90.20
23473;BME280;11909;52.516;13.564;2022-08-19T05:55:42;100244.19;;;21.61;90.32
23473;BME280;11909;52.516;13.564;2022-08-19T05:58:08;100239.53;;;21.65;90.46
23473;BME280;11909;52.516;13.564;2022-08-19T06:00:35;100241.13;;;21.66;90.89
23473;BME280;11909;52.516;13.564;2022-08-19T06:03:02;100232.28;;;21.64;91.16
23473;BME280;11909;52.516;13.564;2022-08-19T06:05:29;100243.09;;;21.66;91.24
23473;BME280;11909;52.516;13.564;2022-08-19T06:07:57;100245.63;;;21.71;91.04
23473;BME280;11909;52.516;13.564;2022-08-19T06:10:24;100246.91;;;21.77;90.89
23473;BME280;11909;52.516;13.564;2022-08-19T06:12:52;100250.91;;;21.76;91.70
23473;BME280;11909;52.516;13.564;2022-08-19T06:15:18;100262.81;;;21.73;91.50
23473;BME280;11909;52.516;13.564;2022-08-19T06:17:45;100270.78;;;21.74;92.15
23473;BME280;11909;52.516;13.564;2022-08-19T06:20:13;100276.25;;;21.67;92.89
23473;BME280;11909;52.516;13.564;2022-08-19T06:22:41;100263.34;;;21.62;93.63
23473;BME280;11909;52.516;13.564;2022-08-19T06:25:10;100251.75;;;21.60;93.62
23473;BME280;11909;52.516;13.564;2022-08-19T06:27:38;100248.22;;;21.63;94.03
23473;BME280;11909;52.516;13.564;2022-08-19T06:30:05;100248.31;;;21.67;94.15
23473;BME280;11909;52.516;13.564;2022-08-19T06:32:32;100252.38;;;21.70;93.54
23473;BME280;11909;52.516;13.564;2022-08-19T06:34:59;100259.16;;;21.69;93.73
23473;BME280;11909;52.516;13.564;2022-08-19T06:37:25;100250.75;;;21.69;94.06
23473;BME280;11909;52.516;13.564;2022-08-19T06:39:52;100243.19;;;21.69;94.63
23473;BME280;11909;52.516;13.564;2022-08-19T06:42:19;100246.41;;;21.71;94.91
23473;BME280;11909;52.516;13.564;2022-08-19T06:44:47;100243.25;;;21.73;95.58
23473;BME280;11909;52.516;13.564;2022-08-19T06:47:16;100243.63;;;21.71;95.89
23473;BME280;11909;52.516;13.564;2022-08-19T06:49:43;100251.25;;;21.74;95.98
23473;BME280;11909;52.516;13.564;2022-08-19T06:52:10;100256.84;;;21.74;96.21
23473;BME280;11909;52.516;13.564;2022-08-19T06:54:38;100260.44;;;21.75;96.29
23473;BME280;11909;52.516;13.564;2022-08-19T06:57:06;100265.38;;;21.82;96.60
23473;BME280;11909;52.516;13.564;2022-08-19T06:59:35;100280.53;;;21.81;96.56
23473;BME280;11909;52.516;13.564;2022-08-19T07:02:04;100282.41;;;21.76;96.80
23473;BME280;11909;52.516;13.564;2022-08-19T07:04:32;100286.03;;;21.77;97.52
23473;BME280;11909;52.516;13.564;2022-08-19T07:07:01;100292.41;;;21.77;97.76
23473;BME280;11909;52.516;13.564;2022-08-19T07:09:28;100300.00;;;21.77;97.09
23473;BME280;11909;52.516;13.564;2022-08-19T07:11:55;100305.56;;;21.77;97.35
23473;BME280;11909;52.516;13.564;2022-08-19T07:14:24;100302.34;;;21.75;97.30
23473;BME280;11909;52.516;13.564;2022-08-19T07:16:54;100297.13;;;21.73;97.65
23473;BME280;11909;52.516;13.564;2022-08-19T07:19:22;100292.25;;;21.70;97.66
23473;BME280;11909;52.516;13.564;2022-08-19T07:21:50;100289.03;;;21.68;97.73
23473;BME280;11909;52.516;13.564;2022-08-19T07:24:19;100281.47;;;21.69;97.15
23473;BME280;11909;52.516;13.564;2022-08-19T07:26:46;100277.94;;;21.72;97.37
23473;BME280;11909;52.516;13.564;2022-08-19T07:29:13;100288.72;;;21.73;97.24
23473;BME280;11909;52.516;13.564;2022-08-19T07:31:41;100287.63;;;21.78;97.14
23473;BME280;11909;52.516;13.564;2022-08-19T07:34:11;100292.56;;;21.85;96.81
23473;BME280;11909;52.516;13.564;2022-08-19T07:36:41;100299.38;;;21.87;96.43
23473;BME280;11909;52.516;13.564;2022-08-19T07:39:14;100292.63;;;21.88;96.46
23473;BME280;11909;52.516;13.564;2022-08-19T07:41:41;100298.63;;;21.90;96.97
23473;BME280;11909;52.516;13.564;2022-08-19T07:44:08;100299.47;;;21.91;96.75
23473;BME280;11909;52.516;13.564;2022-08-19T07:46:37;100310.19;;;21.89;96.79
23473;BME280;11909;52.516;13.564;2022-08-19T07:49:06;100311.81;;;21.90;96.68
23473;BME280;11909;52.516;13.564;2022-08-19T07:51:35;100315.03;;;21.92;96.62
23473;BME280;11909;52.516;13.564;2022-08-19T07:54:01;100313.84;;;21.93;97.27
23473;BME280;11909;52.516;13.564;2022-08-19T07:56:28;100310.31;;;21.96;97.27
23473;BME280;11909;52.516;13.564;2022-08-19T07:58:54;100316.78;;;22.00;96.31
23473;BME280;11909;52.516;13.564;2022-08-19T08:01:23;100318.88;;;22.03;96.03
23473;BME280;11909;52.516;13.564;2022-08-19T08:03:52;100324.50;;;22.07;95.78
23473;BME280;11909;52.516;13.564;2022-08-19T08:06:46;100324.94;;;22.09;95.55
23473;BME280;11909;52.516;13.564;2022-08-19T08:09:33;100322.66;;;22.15;95.02
23473;BME280;11909;52.516;13.564;2022-08-19T08:12:02;100332.66;;;22.16;94.38
23473;BME280;11909;52.516;13.564;2022-08-19T08:14:32;100332.66;;;22.16;93.60
23473;BME280;11909;52.516;13.564;2022-08-19T08:17:01;100339.50;;;22.18;93.88
23473;BME280;11909;52.516;13.564;2022-08-19T08:19:28;100347.06;;;22.18;93.86
23473;BME280;11909;52.516;13.564;2022-08-19T08:21:58;100348.25;;;22.17;94.82
23473;BME280;11909;52.516;13.564;2022-08-19T08:24:27;100349.13;;;22.21;94.94
23473;BME280;11909;52.516;13.564;2022-08-19T08:26:56;100349.94;;;22.22;94.84
23473;BME280;11909;52.516;13.564;2022-08-19T08:29:24;100357.56;;;22.25;95.09
23473;BME280;11909;52.516;13.564;2022-08-19T08:31:51;100352.84;;;22.29;95.11
23473;BME280;11909;52.516;13.564;2022-08-19T08:34:19;100353.28;;;22.31;94.81
23473;BME280;11909;52.516;13.564;2022-08-19T08:36:46;100351.75;;;22.33;94.75
23473;BME280;11909;52.516;13.564;2022-08-19T08:39:17;100349.91;;;22.41;95.07
23473;BME280;11909;52.516;13.564;2022-08-19T08:41:47;100346.44;;;22.48;93.89
23473;BME280;11909;52.516;13.564;2022-08-19T08:44:30;100346.56;;;22.55;93.00
23473;BME280;11909;52.516;13.564;2022-08-19T08:46:59;100351.84;;;22.60;92.16
23473;BME280;11909;52.516;13.564;2022-08-19T08:49:31;100348.41;;;22.71;91.92
23473;BME280;11909;52.516;13.564;2022-08-19T08:52:03;100355.34;;;22.77;90.77
23473;BME280;11909;52.516;13.564;2022-08-19T08:54:32;100351.84;;;22.84;91.17
23473;BME280;11909;52.516;13.564;2022-08-19T08:56:59;100349.59;;;22.93;89.93
23473;BME280;11909;52.516;13.564;2022-08-19T08:59:28;100339.66;;;22.96;90.13
23473;BME280;11909;52.516;13.564;2022-08-19T09:01:57;100343.25;;;22.96;89.50
23473;BME280;11909;52.516;13.564;2022-08-19T09:04:24;100344.38;;;22.91;90.69
23473;BME280;11909;52.516;13.564;2022-08-19T09:06:56;100348.31;;;22.87;90.74
23473;BME280;11909;52.516;13.564;2022-08-19T09:09:30;100348.31;;;22.87;90.87
23473;BME280;11909;52.516;13.564;2022-08-19T09:12:05;100357.50;;;22.87;90.78
23473;BME280;11909;52.516;13.564;2022-08-19T09:14:39;100352.41;;;22.93;90.76
23473;BME280;11909;52.516;13.564;2022-08-19T09:17:11;100354.81;;;22.95;90.46
23473;BME280;11909;52.516;13.564;2022-08-19T09:19:49;100368.75;;;22.91;89.17
23473;BME280;11909;52.516;13.564;2022-08-19T09:22:17;100359.53;;;22.90;88.99
23473;BME280;11909;52.516;13.564;2022-08-19T09:24:47;100358.00;;;22.93;89.28
23473;BME280;11909;52.516;13.564;2022-08-19T09:27:14;100354.44;;;22.96;89.53
23473;BME280;11909;52.516;13.564;2022-08-19T09:29:41;100344.88;;;22.97;88.85
23473;BME280;11909;52.516;13.564;2022-08-19T09:32:08;100343.31;;;23.00;89.97
23473;BME280;11909;52.516;13.564;2022-08-19T09:34:34;100344.53;;;23.02;90.62
23473;BME280;11909;52.516;13.564;2022-08-19T09:37:01;100351.00;;;23.06;88.82
23473;BME280;11909;52.516;13.564;2022-08-19T09:39:28;100346.97;;;23.04;87.99
23473;BME280;11909;52.516;13.564;2022-08-19T09:41:55;100349.69;;;23.00;87.61
23473;BME280;11909;52.516;13.564;2022-08-19T09:44:23;100350.53;;;23.01;88.04
23473;BME280;11909;52.516;13.564;2022-08-19T09:46:50;100351.38;;;23.05;88.28
23473;BME280;11909;52.516;13.564;2022-08-19T09:49:18;100356.59;;;23.06;88.88
23473;BME280;11909;52.516;13.564;2022-08-19T09:51:45;100355.03;;;23.09;88.54
23473;BME280;11909;52.516;13.564;2022-08-19T09:54:15;100352.63;;;23.08;89.75
23473;BME280;11909;52.516;13.564;2022-08-19T09:56:41;100350.19;;;23.06;87.45
23473;BME280;11909;52.516;13.564;2022-08-19T09:59:08;100350.84;;;22.96;87.74
23473;BME280;11909;52.516;13.564;2022-08-19T10:01:35;100344.75;;;22.90;87.81
23473;BME280;11909;52.516;13.564;2022-08-19T10:04:02;100349.50;;;22.86;87.94
23473;BME280;11909;52.516;13.564;2022-08-19T10:06:34;100346.25;;;22.84;88.77
23473;BME280;11909;52.516;13.564;2022-08-19T10:09:02;100345.09;;;22.85;88.55
23473;BME280;11909;52.516;13.564;2022-08-19T10:11:29;100345.50;;;22.87;89.02
23473;BME280;11909;52.516;13.564;2022-08-19T10:13:56;100341.97;;;22.90;90.33
23473;BME280;11909;52.516;13.564;2022-08-19T10:16:23;100341.56;;;22.91;91.01
23473;BME280;11909;52.516;13.564;2022-08-19T10:18:52;100336.47;;;22.97;90.55
23473;BME280;11909;52.516;13.564;2022-08-19T10:21:22;100333.66;;;22.97;90.47
23473;BME280;11909;52.516;13.564;2022-08-19T10:23:51;100325.78;;;23.03;90.70
23473;BME280;11909;52.516;13.564;2022-08-19T10:26:20;100325.81;;;23.06;89.33
23473;BME280;11909;52.516;13.564;2022-08-19T10:28:47;100329.84;;;23.09;89.17
23473;BME280;11909;52.516;13.564;2022-08-19T10:31:20;100324.00;;;23.18;88.55
23473;BME280;11909;52.516;13.564;2022-08-19T10:33:46;100333.25;;;23.22;87.92
23473;BME280;11909;52.516;13.564;2022-08-19T10:36:17;100322.88;;;23.23;87.66
23473;BME280;11909;52.516;13.564;2022-08-19T10:38:45;100323.66;;;23.23;87.08
23473;BME280;11909;52.516;13.564;2022-08-19T10:41:13;100319.66;;;23.24;87.47
23473;BME280;11909;52.516;13.564;2022-08-19T10:43:40;100322.94;;;23.26;87.48
23473;BME280;11909;52.516;13.564;2022-08-19T10:46:08;100322.16;;;23.29;87.29
23473;BME280;11909;52.516;13.564;2022-08-19T10:48:35;100323.00;;;23.30;87.28
23473;BME280;11909;52.516;13.564;2022-08-19T10:51:02;100326.59;;;23.30;87.08
23473;BME280;11909;52.516;13.564;2022-08-19T10:53:48;100323.00;;;23.30;86.47
23473;BME280;11909;52.516;13.564;2022-08-19T10:56:15;100326.59;;;23.30;86.40
23473;BME280;11909;52.516;13.564;2022-08-19T10:58:59;100326.16;;;23.28;86.27
23473;BME280;11909;52.516;13.564;2022-08-19T11:01:28;100327.41;;;23.31;86.79
23473;BME280;11909;52.516;13.564;2022-08-19T11:03:56;100337.06;;;23.37;86.17
23473;BME280;11909;52.516;13.564;2022-08-19T11:06:23;100330.25;;;23.34;86.31
23473;BME280;11909;52.516;13.564;2022-08-19T11:08:51;100329.44;;;23.34;86.05
23473;BME280;11909;52.516;13.564;2022-08-19T11:11:18;100337.06;;;23.37;86.09
23473;BME280;11909;52.516;13.564;2022-08-19T11:13:45;100341.88;;;23.37;86.64
23473;BME280;11909;52.516;13.564;2022-08-19T11:16:13;100348.28;;;23.37;86.23
23473;BME280;11909;52.516;13.564;2022-08-19T11:18:42;100339.44;;;23.35;85.69
23473;BME280;11909;52.516;13.564;2022-08-19T11:21:11;100340.22;;;23.32;86.35
23473;BME280;11909;52.516;13.564;2022-08-19T11:23:38;100341.03;;;23.32;86.34
23473;BME280;11909;52.516;13.564;2022-08-19T11:26:06;100344.72;;;23.40;86.29
23473;BME280;11909;52.516;13.564;2022-08-19T11:28:33;100345.91;;;23.39;86.73
23473;BME280;11909;52.516;13.564;2022-08-19T11:30:59;100351.56;;;23.43;85.14
23473;BME280;11909;52.516;13.564;2022-08-19T11:33:27;100348.69;;;23.39;85.30
23473;BME280;11909;52.516;13.564;2022-08-19T11:35:54;100343.78;;;23.29;85.95
23473;BME280;11909;52.516;13.564;2022-08-19T11:38:22;100347.66;;;23.24;85.27
23473;BME280;11909;52.516;13.564;2022-08-19T11:40:55;100344.00;;;23.20;85.81
23473;BME280;11909;52.516;13.564;2022-08-19T11:43:22;100337.75;;;23.27;86.81
23473;BME280;11909;52.516;13.564;2022-08-19T11:45:49;100345.81;;;23.32;86.19
23473;BME280;11909;52.516;13.564;2022-08-19T11:48:16;100348.59;;;23.32;85.83
23473;BME280;11909;52.516;13.564;2022-08-19T11:50:47;100356.16;;;23.28;85.62
23473;BME280;11909;52.516;13.564;2022-08-19T11:53:14;100366.81;;;23.22;83.82
23473;BME280;11909;52.516;13.564;2022-08-19T11:55:40;100362.41;;;23.21;84.54
23473;BME280;11909;52.516;13.564;2022-08-19T11:58:08;100373.69;;;23.25;84.44
23473;BME280;11909;52.516;13.564;2022-08-19T12:00:37;100379.63;;;23.23;84.91
23473;BME280;11909;52.516;13.564;2022-08-19T12:03:04;100380.47;;;23.24;85.99
23473;BME280;11909;52.516;13.564;2022-08-19T12:05:30;100367.84;;;23.33;84.89
23473;BME280;11909;52.516;13.564;2022-08-19T12:07:58;100375.81;;;23.31;84.50
23473;BME280;11909;52.516;13.564;2022-08-19T12:10:24;100378.63;;;23.31;85.20
23473;BME280;11909;52.516;13.564;2022-08-19T12:12:51;100382.31;;;23.39;84.62
23473;BME280;11909;52.516;13.564;2022-08-19T12:15:17;100383.22;;;23.47;83.96
23473;BME280;11909;52.516;13.564;2022-08-19T12:17:45;100374.78;;;23.43;84.34
23473;BME280;11909;52.516;13.564;2022-08-19T12:20:12;100389.25;;;23.49;83.89
23473;BME280;11909;52.516;13.564;2022-08-19T12:22:41;100390.84;;;23.50;84.56
23473;BME280;11909;52.516;13.564;2022-08-19T12:25:08;100392.09;;;23.53;84.90
23473;BME280;11909;52.516;13.564;2022-08-19T12:27:35;100390.06;;;23.49;83.42
23473;BME280;11909;52.516;13.564;2022-08-19T12:30:01;100392.03;;;23.49;83.57
23473;BME280;11909;52.516;13.564;2022-08-19T12:32:29;100397.66;;;23.49;83.30
23473;BME280;11909;52.516;13.564;2022-08-19T12:34:57;100399.25;;;23.50;83.54
23473;BME280;11909;52.516;13.564;2022-08-19T12:37:23;100386.84;;;23.47;83.52
23473;BME280;11909;52.516;13.564;2022-08-19T12:39:50;100396.56;;;23.57;83.17
23473;BME280;11909;52.516;13.564;2022-08-19T12:42:16;100388.59;;;23.59;82.91
23473;BME280;11909;52.516;13.564;2022-08-19T12:44:43;100390.66;;;23.62;82.72
23473;BME280;11909;52.516;13.564;2022-08-19T12:47:11;100385.13;;;23.70;82.82
23473;BME280;11909;52.516;13.564;2022-08-19T12:49:39;100384.78;;;23.75;82.34